sensor_id;sensor_type;location;lat;lon;timestamp;P1;durP1;ratioP1;P2;durP2;ratioP2
1701;SDS011;848;48.354;10.064;2023-08-31T00:01:00;7.75;;;5.45;;
1701;SDS011;848;48.354;10.064;2023-08-31T00:03:29;6.35;;;4.60;;
1701;SDS011;848;48.354;10.064;2023-08-31T00:05:56;5.35;;;4.45;;
1701;SDS011;848;48.354;10.064;2023-08-31T00:08:23;5.03;;;4.60;;
1701;SDS011;848;48.354;10.064;2023-08-31T00:10:56;5.82;;;5.22;;
1701;SDS011;848;48.354;10.064;2023-08-31T00:13:23;6.15;;;5.43;;
1701;SDS011;848;48.354;10.064;2023-08-31T00:15:53;6.40;;;5.80;;
1701;SDS011;848;48.354;10.064;2023-08-31T00:18:20;7.07;;;6.47;;
1701;SDS011;848;48.354;10.064;2023-08-31T00:20:47;6.97;;;6.28;;
1701;SDS011;848;48.354;10.064;2023-08-31T00:23:14;8.70;;;6.70;;
1701;SDS011;848;48.354;10.064;2023-08-31T00:25:41;6.35;;;5.85;;
1701;SDS011;848;48.354;10.064;2023-08-31T00:28:10;6.80;;;6.07;;
1701;SDS011;848;48.354;10.064;2023-08-31T00:30:36;6.80;;;5.90;;
1701;SDS011;848;48.354;10.064;2023-08-31T00:33:03;8.25;;;6.20;;
1701;SDS011;848;48.354;10.064;2023-08-31T00:35:32;6.80;;;6.10;;
1701;SDS011;848;48.354;10.064;2023-08-31T00:38:00;6.40;;;5.82;;
1701;SDS011;848;48.354;10.064;2023-08-31T00:40:29;6.32;;;5.65;;
1701;SDS011;848;48.354;10.064;2023-08-31T00:42:57;6.93;;;6.20;;
1701;SDS011;848;48.354;10.064;2023-08-31T00:45:25;7.68;;;6.10;;
1701;SDS011;848;48.354;10.064;2023-08-31T00:47:54;7.95;;;6.03;;
1701;SDS011;848;48.354;10.064;2023-08-31T00:50:22;6.22;;;5.50;;
1701;SDS011;848;48.354;10.064;2023-08-31T00:52:49;6.40;;;5.50;;
1701;SDS011;848;48.354;10.064;2023-08-31T00:55:17;5.93;;;5.28;;
1701;SDS011;848;48.354;10.064;2023-08-31T00:57:44;5.47;;;4.97;;
1701;SDS011;848;48.354;10.064;2023-08-31T01:00:11;5.10;;;4.65;;
1701;SDS011;848;48.354;10.064;2023-08-31T01:02:43;5.85;;;5.25;;
1701;SDS011;848;48.354;10.064;2023-08-31T01:05:24;6.20;;;4.22;;
1701;SDS011;848;48.354;10.064;2023-08-31T01:08:02;7.60;;;5.05;;
1701;SDS011;848;48.354;10.064;2023-08-31T01:10:35;5.60;;;5.07;;
1701;SDS011;848;48.354;10.064;2023-08-31T01:13:10;5.65;;;5.15;;
1701;SDS011;848;48.354;10.064;2023-08-31T01:15:41;5.60;;;5.10;;
1701;SDS011;848;48.354;10.064;2023-08-31T01:18:13;4.00;;;3.65;;
1701;SDS011;848;48.354;10.064;2023-08-31T01:20:45;4.93;;;4.45;;
1701;SDS011;848;48.354;10.064;2023-08-31T01:23:19;4.57;;;3.70;;
1701;SDS011;848;48.354;10.064;2023-08-31T01:25:48;5.30;;;4.65;;
1701;SDS011;848;48.354;10.064;2023-08-31T01:28:15;5.20;;;4.70;;
1701;SDS011;848;48.354;10.064;2023-08-31T01:30:42;4.93;;;4.38;;
1701;SDS011;848;48.354;10.064;2023-08-31T01:33:10;4.70;;;3.83;;
1701;SDS011;848;48.354;10.064;2023-08-31T01:35:38;3.75;;;3.40;;
1701;SDS011;848;48.354;10.064;2023-08-31T01:38:09;4.10;;;3.00;;
1701;SDS011;848;48.354;10.064;2023-08-31T01:40:38;3.92;;;3.53;;
1701;SDS011;848;48.354;10.064;2023-08-31T01:43:11;4.40;;;3.47;;
1701;SDS011;848;48.354;10.064;2023-08-31T01:45:39;3.83;;;3.53;;
1701;SDS011;848;48.354;10.064;2023-08-31T01:48:07;4.15;;;3.75;;
1701;SDS011;848;48.354;10.064;2023-08-31T01:50:35;5.25;;;3.92;;
1701;SDS011;848;48.354;10.064;2023-08-31T01:53:02;4.68;;;3.90;;
1701;SDS011;848;48.354;10.064;2023-08-31T01:55:29;4.03;;;3.50;;
1701;SDS011;848;48.354;10.064;2023-08-31T01:57:56;4.30;;;3.90;;
1701;SDS011;848;48.354;10.064;2023-08-31T02:00:24;3.92;;;3.38;;
1701;SDS011;848;48.354;10.064;2023-08-31T02:02:53;4.20;;;3.53;;
1701;SDS011;848;48.354;10.064;2023-08-31T02:05:20;4.45;;;3.45;;
1701;SDS011;848;48.354;10.064;2023-08-31T02:07:47;4.38;;;3.22;;
1701;SDS011;848;48.354;10.064;2023-08-31T02:10:14;3.20;;;2.90;;
1701;SDS011;848;48.354;10.064;2023-08-31T02:12:40;5.15;;;3.05;;
1701;SDS011;848;48.354;10.064;2023-08-31T02:15:08;3.65;;;3.17;;
1701;SDS011;848;48.354;10.064;2023-08-31T02:17:36;4.82;;;3.28;;
1701;SDS011;848;48.354;10.064;2023-08-31T02:20:04;3.47;;;2.90;;
1701;SDS011;848;48.354;10.064;2023-08-31T02:22:33;4.03;;;3.10;;
1701;SDS011;848;48.354;10.064;2023-08-31T02:25:00;3.17;;;2.88;;
1701;SDS011;848;48.354;10.064;2023-08-31T02:27:27;3.28;;;2.92;;
1701;SDS011;848;48.354;10.064;2023-08-31T02:29:54;3.92;;;3.55;;
1701;SDS011;848;48.354;10.064;2023-08-31T02:32:21;3.55;;;3.25;;
1701;SDS011;848;48.354;10.064;2023-08-31T02:34:49;5.82;;;3.70;;
1701;SDS011;848;48.354;10.064;2023-08-31T02:37:16;4.22;;;3.65;;
1701;SDS011;848;48.354;10.064;2023-08-31T02:39:43;5.07;;;4.07;;
1701;SDS011;848;48.354;10.064;2023-08-31T02:42:10;4.85;;;3.35;;
1701;SDS011;848;48.354;10.064;2023-08-31T02:44:37;3.17;;;2.85;;
1701;SDS011;848;48.354;10.064;2023-08-31T02:47:04;2.67;;;2.45;;
1701;SDS011;848;48.354;10.064;2023-08-31T02:49:31;5.68;;;3.15;;
1701;SDS011;848;48.354;10.064;2023-08-31T02:51:59;4.18;;;3.78;;
1701;SDS011;848;48.354;10.064;2023-08-31T02:54:26;3.50;;;3.17;;
1701;SDS011;848;48.354;10.064;2023-08-31T02:56:53;3.97;;;3.58;;
1701;SDS011;848;48.354;10.064;2023-08-31T02:59:20;3.50;;;3.20;;
1701;SDS011;848;48.354;10.064;2023-08-31T03:01:48;5.50;;;3.60;;
1701;SDS011;848;48.354;10.064;2023-08-31T03:04:14;3.90;;;3.50;;
1701;SDS011;848;48.354;10.064;2023-08-31T03:06:42;4.18;;;3.78;;
1701;SDS011;848;48.354;10.064;2023-08-31T03:09:12;3.55;;;3.25;;
1701;SDS011;848;48.354;10.064;2023-08-31T03:11:39;4.50;;;3.50;;
1701;SDS011;848;48.354;10.064;2023-08-31T03:14:06;4.25;;;3.85;;
1701;SDS011;848;48.354;10.064;2023-08-31T03:16:34;3.58;;;3.28;;
1701;SDS011;848;48.354;10.064;2023-08-31T03:19:01;3.60;;;3.30;;
1701;SDS011;848;48.354;10.064;2023-08-31T03:21:28;3.80;;;3.40;;
1701;SDS011;848;48.354;10.064;2023-08-31T03:23:55;5.30;;;3.83;;
1701;SDS011;848;48.354;10.064;2023-08-31T03:26:23;4.18;;;3.78;;
1701;SDS011;848;48.354;10.064;2023-08-31T03:28:50;3.83;;;3.28;;
1701;SDS011;848;48.354;10.064;2023-08-31T03:31:17;4.68;;;3.63;;
1701;SDS011;848;48.354;10.064;2023-08-31T03:33:44;3.20;;;2.90;;
1701;SDS011;848;48.354;10.064;2023-08-31T03:36:11;3.85;;;3.45;;
1701;SDS011;848;48.354;10.064;2023-08-31T03:38:37;3.55;;;3.20;;
1701;SDS011;848;48.354;10.064;2023-08-31T03:41:05;3.90;;;3.50;;
1701;SDS011;848;48.354;10.064;2023-08-31T03:43:33;4.13;;;3.20;;
1701;SDS011;848;48.354;10.064;2023-08-31T03:46:00;3.65;;;3.05;;
1701;SDS011;848;48.354;10.064;2023-08-31T03:48:27;8.13;;;4.13;;
1701;SDS011;848;48.354;10.064;2023-08-31T03:50:54;4.03;;;3.70;;
1701;SDS011;848;48.354;10.064;2023-08-31T03:53:21;3.80;;;3.45;;
1701;SDS011;848;48.354;10.064;2023-08-31T03:55:48;4.07;;;3.28;;
1701;SDS011;848;48.354;10.064;2023-08-31T03:58:15;4.55;;;3.63;;
1701;SDS011;848;48.354;10.064;2023-08-31T04:00:44;3.50;;;3.20;;
1701;SDS011;848;48.354;10.064;2023-08-31T04:03:11;6.22;;;3.60;;
1701;SDS011;848;48.354;10.064;2023-08-31T04:05:37;3.42;;;2.70;;
1701;SDS011;848;48.354;10.064;2023-08-31T04:08:05;3.15;;;2.85;;
1701;SDS011;848;48.354;10.064;2023-08-31T04:10:32;3.78;;;3.33;;
1701;SDS011;848;48.354;10.064;2023-08-31T04:12:59;3.35;;;2.70;;
1701;SDS011;848;48.354;10.064;2023-08-31T04:15:25;4.35;;;3.45;;
1701;SDS011;848;48.354;10.064;2023-08-31T04:17:54;4.35;;;3.35;;
1701;SDS011;848;48.354;10.064;2023-08-31T04:20:21;3.33;;;3.00;;
1701;SDS011;848;48.354;10.064;2023-08-31T04:22:48;3.95;;;3.13;;
1701;SDS011;848;48.354;10.064;2023-08-31T04:25:15;4.63;;;3.42;;
1701;SDS011;848;48.354;10.064;2023-08-31T04:27:42;4.45;;;3.22;;
1701;SDS011;848;48.354;10.064;2023-08-31T04:30:11;4.78;;;3.60;;
1701;SDS011;848;48.354;10.064;2023-08-31T04:32:38;5.20;;;3.50;;
1701;SDS011;848;48.354;10.064;2023-08-31T04:35:07;4.00;;;3.60;;
1701;SDS011;848;48.354;10.064;2023-08-31T04:37:34;2.95;;;2.55;;
1701;SDS011;848;48.354;10.064;2023-08-31T04:40:01;3.05;;;2.72;;
1701;SDS011;848;48.354;10.064;2023-08-31T04:42:29;3.08;;;2.63;;
1701;SDS011;848;48.354;10.064;2023-08-31T04:44:56;3.55;;;3.25;;
1701;SDS011;848;48.354;10.064;2023-08-31T04:47:22;3.45;;;3.13;;
1701;SDS011;848;48.354;10.064;2023-08-31T04:49:49;4.50;;;3.30;;
1701;SDS011;848;48.354;10.064;2023-08-31T04:52:17;8.60;;;3.55;;
1701;SDS011;848;48.354;10.064;2023-08-31T04:54:44;4.28;;;3.88;;
1701;SDS011;848;48.354;10.064;2023-08-31T04:57:11;3.70;;;3.40;;
1701;SDS011;848;48.354;10.064;2023-08-31T04:59:38;3.10;;;2.70;;
1701;SDS011;848;48.354;10.064;2023-08-31T05:02:05;3.85;;;2.95;;
1701;SDS011;848;48.354;10.064;2023-08-31T05:04:32;4.45;;;3.40;;
1701;SDS011;848;48.354;10.064;2023-08-31T05:06:58;4.50;;;3.70;;
1701;SDS011;848;48.354;10.064;2023-08-31T05:09:27;3.10;;;2.80;;
1701;SDS011;848;48.354;10.064;2023-08-31T05:11:57;3.85;;;3.05;;
1701;SDS011;848;48.354;10.064;2023-08-31T05:14:24;3.78;;;3.40;;
1701;SDS011;848;48.354;10.064;2023-08-31T05:16:51;4.10;;;2.80;;
1701;SDS011;848;48.354;10.064;2023-08-31T05:19:18;8.50;;;4.00;;
1701;SDS011;848;48.354;10.064;2023-08-31T05:21:45;3.95;;;2.90;;
1701;SDS011;848;48.354;10.064;2023-08-31T05:24:12;4.05;;;3.53;;
1701;SDS011;848;48.354;10.064;2023-08-31T05:26:40;4.43;;;3.60;;
1701;SDS011;848;48.354;10.064;2023-08-31T05:29:07;4.35;;;3.35;;
1701;SDS011;848;48.354;10.064;2023-08-31T05:31:34;4.85;;;3.15;;
1701;SDS011;848;48.354;10.064;2023-08-31T05:34:01;5.15;;;3.65;;
1701;SDS011;848;48.354;10.064;2023-08-31T05:36:28;4.10;;;3.70;;
1701;SDS011;848;48.354;10.064;2023-08-31T05:38:55;5.38;;;3.65;;
1701;SDS011;848;48.354;10.064;2023-08-31T05:41:21;5.25;;;3.78;;
1701;SDS011;848;48.354;10.064;2023-08-31T05:43:50;3.75;;;3.38;;
1701;SDS011;848;48.354;10.064;2023-08-31T05:46:17;4.10;;;3.70;;
1701;SDS011;848;48.354;10.064;2023-08-31T05:48:44;4.97;;;3.97;;
1701;SDS011;848;48.354;10.064;2023-08-31T05:51:11;4.30;;;3.85;;
1701;SDS011;848;48.354;10.064;2023-08-31T05:53:38;3.83;;;3.40;;
1701;SDS011;848;48.354;10.064;2023-08-31T05:56:05;6.30;;;3.75;;
1701;SDS011;848;48.354;10.064;2023-08-31T05:58:32;4.60;;;3.67;;
1701;SDS011;848;48.354;10.064;2023-08-31T06:01:01;5.88;;;3.50;;
1701;SDS011;848;48.354;10.064;2023-08-31T06:03:29;7.45;;;3.88;;
1701;SDS011;848;48.354;10.064;2023-08-31T06:05:56;3.72;;;3.20;;
1701;SDS011;848;48.354;10.064;2023-08-31T06:08:24;4.10;;;3.25;;
1701;SDS011;848;48.354;10.064;2023-08-31T06:10:51;5.32;;;4.15;;
1701;SDS011;848;48.354;10.064;2023-08-31T06:13:18;4.60;;;3.55;;
1701;SDS011;848;48.354;10.064;2023-08-31T06:15:45;5.40;;;4.55;;
1701;SDS011;848;48.354;10.064;2023-08-31T06:18:13;4.00;;;3.20;;
1701;SDS011;848;48.354;10.064;2023-08-31T06:20:40;5.13;;;3.63;;
1701;SDS011;848;48.354;10.064;2023-08-31T06:23:07;5.22;;;4.00;;
1701;SDS011;848;48.354;10.064;2023-08-31T06:25:35;3.85;;;3.03;;
1701;SDS011;848;48.354;10.064;2023-08-31T06:28:02;5.03;;;4.25;;
1701;SDS011;848;48.354;10.064;2023-08-31T06:30:33;4.25;;;3.65;;
1701;SDS011;848;48.354;10.064;2023-08-31T06:33:00;5.10;;;3.55;;
1701;SDS011;848;48.354;10.064;2023-08-31T06:35:28;4.28;;;3.72;;
1701;SDS011;848;48.354;10.064;2023-08-31T06:37:56;6.25;;;4.32;;
1701;SDS011;848;48.354;10.064;2023-08-31T06:40:23;4.35;;;3.70;;
1701;SDS011;848;48.354;10.064;2023-08-31T06:42:50;3.75;;;3.38;;
1701;SDS011;848;48.354;10.064;2023-08-31T06:45:17;4.93;;;4.07;;
1701;SDS011;848;48.354;10.064;2023-08-31T06:47:44;4.50;;;3.30;;
1701;SDS011;848;48.354;10.064;2023-08-31T06:50:11;4.60;;;3.00;;
1701;SDS011;848;48.354;10.064;2023-08-31T06:52:39;5.28;;;3.35;;
1701;SDS011;848;48.354;10.064;2023-08-31T06:55:07;4.32;;;3.22;;
1701;SDS011;848;48.354;10.064;2023-08-31T06:57:35;3.85;;;2.85;;
1701;SDS011;848;48.354;10.064;2023-08-31T07:00:03;3.85;;;3.45;;
1701;SDS011;848;48.354;10.064;2023-08-31T07:02:32;5.47;;;3.65;;
1701;SDS011;848;48.354;10.064;2023-08-31T07:04:59;3.83;;;3.50;;
1701;SDS011;848;48.354;10.064;2023-08-31T07:07:26;4.68;;;3.15;;
1701;SDS011;848;48.354;10.064;2023-08-31T07:09:55;9.80;;;3.47;;
1701;SDS011;848;48.354;10.064;2023-08-31T07:12:22;5.20;;;3.50;;
1701;SDS011;848;48.354;10.064;2023-08-31T07:14:49;5.15;;;3.10;;
1701;SDS011;848;48.354;10.064;2023-08-31T07:17:17;5.38;;;3.33;;
1701;SDS011;848;48.354;10.064;2023-08-31T07:19:44;4.15;;;3.65;;
1701;SDS011;848;48.354;10.064;2023-08-31T07:22:11;9.65;;;3.33;;
1701;SDS011;848;48.354;10.064;2023-08-31T07:24:38;3.30;;;3.00;;
1701;SDS011;848;48.354;10.064;2023-08-31T07:27:06;3.47;;;2.78;;
1701;SDS011;848;48.354;10.064;2023-08-31T07:29:33;8.20;;;3.72;;
1701;SDS011;848;48.354;10.064;2023-08-31T07:32:00;5.68;;;3.50;;
1701;SDS011;848;48.354;10.064;2023-08-31T07:34:28;5.47;;;3.47;;
1701;SDS011;848;48.354;10.064;2023-08-31T07:36:56;5.15;;;2.70;;
1701;SDS011;848;48.354;10.064;2023-08-31T07:39:23;3.55;;;2.83;;
1701;SDS011;848;48.354;10.064;2023-08-31T07:41:50;3.47;;;3.17;;
1701;SDS011;848;48.354;10.064;2023-08-31T07:44:20;5.07;;;3.88;;
1701;SDS011;848;48.354;10.064;2023-08-31T07:46:47;3.83;;;3.40;;
1701;SDS011;848;48.354;10.064;2023-08-31T07:49:14;4.75;;;3.45;;
1701;SDS011;848;48.354;10.064;2023-08-31T07:51:41;5.63;;;2.80;;
1701;SDS011;848;48.354;10.064;2023-08-31T07:54:08;4.85;;;3.72;;
1701;SDS011;848;48.354;10.064;2023-08-31T07:56:35;3.90;;;3.22;;
1701;SDS011;848;48.354;10.064;2023-08-31T07:59:02;4.15;;;3.20;;
1701;SDS011;848;48.354;10.064;2023-08-31T08:01:31;4.60;;;3.40;;
1701;SDS011;848;48.354;10.064;2023-08-31T08:03:58;4.00;;;3.40;;
1701;SDS011;848;48.354;10.064;2023-08-31T08:06:24;4.63;;;3.30;;
1701;SDS011;848;48.354;10.064;2023-08-31T08:08:52;3.38;;;2.90;;
1701;SDS011;848;48.354;10.064;2023-08-31T08:11:19;3.88;;;3.30;;
1701;SDS011;848;48.354;10.064;2023-08-31T08:13:46;5.45;;;3.53;;
1701;SDS011;848;48.354;10.064;2023-08-31T08:16:12;4.22;;;3.30;;
1701;SDS011;848;48.354;10.064;2023-08-31T08:18:41;3.17;;;2.78;;
1701;SDS011;848;48.354;10.064;2023-08-31T08:21:08;5.50;;;3.30;;
1701;SDS011;848;48.354;10.064;2023-08-31T08:23:35;2.70;;;2.50;;
1701;SDS011;848;48.354;10.064;2023-08-31T08:26:02;4.00;;;2.60;;
1701;SDS011;848;48.354;10.064;2023-08-31T08:28:28;4.00;;;2.80;;
1701;SDS011;848;48.354;10.064;2023-08-31T08:30:55;4.03;;;3.10;;
1701;SDS011;848;48.354;10.064;2023-08-31T08:33:22;5.28;;;3.05;;
1701;SDS011;848;48.354;10.064;2023-08-31T08:35:51;7.68;;;3.00;;
1701;SDS011;848;48.354;10.064;2023-08-31T08:38:17;4.28;;;2.30;;
1701;SDS011;848;48.354;10.064;2023-08-31T08:40:45;4.95;;;2.20;;
1701;SDS011;848;48.354;10.064;2023-08-31T08:43:12;3.75;;;2.78;;
1701;SDS011;848;48.354;10.064;2023-08-31T08:45:40;3.78;;;3.38;;
1701;SDS011;848;48.354;10.064;2023-08-31T08:48:12;6.80;;;2.88;;
1701;SDS011;848;48.354;10.064;2023-08-31T08:50:39;4.75;;;2.72;;
1701;SDS011;848;48.354;10.064;2023-08-31T08:53:08;5.95;;;2.25;;
1701;SDS011;848;48.354;10.064;2023-08-31T08:55:38;2.85;;;2.00;;
1701;SDS011;848;48.354;10.064;2023-08-31T08:58:07;4.70;;;2.05;;
1701;SDS011;848;48.354;10.064;2023-08-31T09:00:35;4.22;;;2.30;;
1701;SDS011;848;48.354;10.064;2023-08-31T09:03:02;2.70;;;1.70;;
1701;SDS011;848;48.354;10.064;2023-08-31T09:05:30;3.67;;;2.05;;
1701;SDS011;848;48.354;10.064;2023-08-31T09:08:01;4.15;;;1.83;;
1701;SDS011;848;48.354;10.064;2023-08-31T09:10:37;4.00;;;1.85;;
1701;SDS011;848;48.354;10.064;2023-08-31T09:13:06;3.88;;;2.35;;
1701;SDS011;848;48.354;10.064;2023-08-31T09:15:40;3.22;;;1.85;;
1701;SDS011;848;48.354;10.064;2023-08-31T09:18:13;3.30;;;2.17;;
1701;SDS011;848;48.354;10.064;2023-08-31T09:20:44;3.38;;;1.70;;
1701;SDS011;848;48.354;10.064;2023-08-31T09:23:12;7.80;;;2.25;;
1701;SDS011;848;48.354;10.064;2023-08-31T09:25:43;3.85;;;2.08;;
1701;SDS011;848;48.354;10.064;2023-08-31T09:28:12;3.30;;;1.90;;
1701;SDS011;848;48.354;10.064;2023-08-31T09:30:40;3.55;;;2.00;;
1701;SDS011;848;48.354;10.064;2023-08-31T09:33:07;3.72;;;2.25;;
1701;SDS011;848;48.354;10.064;2023-08-31T09:35:38;4.18;;;1.70;;
1701;SDS011;848;48.354;10.064;2023-08-31T09:38:09;8.30;;;2.42;;
1701;SDS011;848;48.354;10.064;2023-08-31T09:40:36;3.53;;;2.05;;
1701;SDS011;848;48.354;10.064;2023-08-31T09:43:05;4.80;;;1.75;;
1701;SDS011;848;48.354;10.064;2023-08-31T09:45:32;3.80;;;2.20;;
1701;SDS011;848;48.354;10.064;2023-08-31T09:48:01;4.72;;;2.25;;
1701;SDS011;848;48.354;10.064;2023-08-31T09:50:29;2.63;;;1.60;;
1701;SDS011;848;48.354;10.064;2023-08-31T09:53:00;3.38;;;1.92;;
1701;SDS011;848;48.354;10.064;2023-08-31T09:55:29;5.30;;;1.90;;
1701;SDS011;848;48.354;10.064;2023-08-31T09:57:57;5.30;;;2.10;;
1701;SDS011;848;48.354;10.064;2023-08-31T10:00:27;3.85;;;1.95;;
1701;SDS011;848;48.354;10.064;2023-08-31T10:02:57;4.35;;;1.73;;
1701;SDS011;848;48.354;10.064;2023-08-31T10:05:27;4.65;;;2.10;;
1701;SDS011;848;48.354;10.064;2023-08-31T10:07:54;3.03;;;2.30;;
1701;SDS011;848;48.354;10.064;2023-08-31T10:10:21;3.50;;;2.08;;
1701;SDS011;848;48.354;10.064;2023-08-31T10:12:49;2.92;;;1.75;;
1701;SDS011;848;48.354;10.064;2023-08-31T10:15:17;5.78;;;2.05;;
1701;SDS011;848;48.354;10.064;2023-08-31T10:17:46;4.78;;;2.15;;
1701;SDS011;848;48.354;10.064;2023-08-31T10:20:14;10.13;;;1.98;;
1701;SDS011;848;48.354;10.064;2023-08-31T10:22:42;4.28;;;1.80;;
1701;SDS011;848;48.354;10.064;2023-08-31T10:25:10;2.38;;;1.65;;
1701;SDS011;848;48.354;10.064;2023-08-31T10:27:37;3.72;;;2.22;;
1701;SDS011;848;48.354;10.064;2023-08-31T10:35:50;4.47;;;2.17;;
1701;SDS011;848;48.354;10.064;2023-08-31T10:38:24;3.28;;;1.77;;
1701;SDS011;848;48.354;10.064;2023-08-31T10:43:46;4.45;;;2.17;;
1701;SDS011;848;48.354;10.064;2023-08-31T10:46:15;4.43;;;2.08;;
1701;SDS011;848;48.354;10.064;2023-08-31T10:48:52;3.42;;;1.83;;
1701;SDS011;848;48.354;10.064;2023-08-31T10:51:27;4.22;;;2.17;;
1701;SDS011;848;48.354;10.064;2023-08-31T10:54:07;2.72;;;1.90;;
1701;SDS011;848;48.354;10.064;2023-08-31T10:56:51;5.53;;;2.50;;
1701;SDS011;848;48.354;10.064;2023-08-31T10:59:19;2.78;;;2.08;;
1701;SDS011;848;48.354;10.064;2023-08-31T11:01:54;3.55;;;1.70;;
1701;SDS011;848;48.354;10.064;2023-08-31T11:04:23;6.25;;;1.70;;
1701;SDS011;848;48.354;10.064;2023-08-31T11:09:39;4.13;;;2.05;;
1701;SDS011;848;48.354;10.064;2023-08-31T11:12:06;4.22;;;2.33;;
1701;SDS011;848;48.354;10.064;2023-08-31T11:14:34;3.80;;;1.95;;
1701;SDS011;848;48.354;10.064;2023-08-31T11:17:01;3.83;;;2.00;;
1701;SDS011;848;48.354;10.064;2023-08-31T11:19:31;3.17;;;1.90;;
1701;SDS011;848;48.354;10.064;2023-08-31T11:21:59;2.50;;;1.98;;
1701;SDS011;848;48.354;10.064;2023-08-31T11:24:27;3.88;;;1.80;;
1701;SDS011;848;48.354;10.064;2023-08-31T11:26:54;4.65;;;2.15;;
1701;SDS011;848;48.354;10.064;2023-08-31T11:29:21;6.43;;;1.90;;
1701;SDS011;848;48.354;10.064;2023-08-31T11:31:48;3.58;;;1.92;;
1701;SDS011;848;48.354;10.064;2023-08-31T11:34:15;4.80;;;2.13;;
1701;SDS011;848;48.354;10.064;2023-08-31T11:36:45;4.13;;;2.03;;
1701;SDS011;848;48.354;10.064;2023-08-31T11:39:13;4.13;;;1.80;;
1701;SDS011;848;48.354;10.064;2023-08-31T11:41:40;4.50;;;2.08;;
1701;SDS011;848;48.354;10.064;2023-08-31T11:44:09;4.80;;;2.30;;
1701;SDS011;848;48.354;10.064;2023-08-31T11:46:39;4.38;;;2.00;;
1701;SDS011;848;48.354;10.064;2023-08-31T11:49:07;2.47;;;1.65;;
1701;SDS011;848;48.354;10.064;2023-08-31T11:51:35;4.00;;;2.08;;
1701;SDS011;848;48.354;10.064;2023-08-31T11:54:05;2.95;;;2.40;;
1701;SDS011;848;48.354;10.064;2023-08-31T11:56:39;3.80;;;2.40;;
1701;SDS011;848;48.354;10.064;2023-08-31T11:59:08;6.55;;;2.00;;
1701;SDS011;848;48.354;10.064;2023-08-31T12:01:40;4.78;;;2.10;;
1701;SDS011;848;48.354;10.064;2023-08-31T12:04:11;8.70;;;2.42;;
1701;SDS011;848;48.354;10.064;2023-08-31T12:06:39;5.30;;;1.85;;
1701;SDS011;848;48.354;10.064;2023-08-31T12:09:08;3.70;;;2.15;;
1701;SDS011;848;48.354;10.064;2023-08-31T12:11:35;4.00;;;1.95;;
1701;SDS011;848;48.354;10.064;2023-08-31T12:14:03;2.85;;;2.10;;
1701;SDS011;848;48.354;10.064;2023-08-31T12:16:32;4.47;;;1.58;;
1701;SDS011;848;48.354;10.064;2023-08-31T12:19:01;2.40;;;1.70;;
1701;SDS011;848;48.354;10.064;2023-08-31T12:21:30;3.63;;;1.70;;
1701;SDS011;848;48.354;10.064;2023-08-31T12:23:57;5.43;;;2.00;;
1701;SDS011;848;48.354;10.064;2023-08-31T12:26:25;4.82;;;2.40;;
1701;SDS011;848;48.354;10.064;2023-08-31T12:28:53;2.55;;;1.83;;
1701;SDS011;848;48.354;10.064;2023-08-31T12:31:21;7.45;;;2.22;;
1701;SDS011;848;48.354;10.064;2023-08-31T12:33:49;2.53;;;1.80;;
1701;SDS011;848;48.354;10.064;2023-08-31T12:36:16;2.88;;;1.73;;
1701;SDS011;848;48.354;10.064;2023-08-31T12:38:42;4.10;;;2.00;;
1701;SDS011;848;48.354;10.064;2023-08-31T12:41:09;3.17;;;1.70;;
1701;SDS011;848;48.354;10.064;2023-08-31T12:43:38;5.05;;;1.73;;
1701;SDS011;848;48.354;10.064;2023-08-31T12:46:05;2.95;;;1.80;;
1701;SDS011;848;48.354;10.064;2023-08-31T12:48:34;4.95;;;2.05;;
1701;SDS011;848;48.354;10.064;2023-08-31T12:51:01;4.85;;;2.00;;
1701;SDS011;848;48.354;10.064;2023-08-31T12:53:28;3.50;;;2.33;;
1701;SDS011;848;48.354;10.064;2023-08-31T12:55:55;2.85;;;1.95;;
1701;SDS011;848;48.354;10.064;2023-08-31T12:58:22;5.00;;;2.35;;
1701;SDS011;848;48.354;10.064;2023-08-31T13:00:50;3.00;;;1.70;;
1701;SDS011;848;48.354;10.064;2023-08-31T13:03:18;9.25;;;2.00;;
1701;SDS011;848;48.354;10.064;2023-08-31T13:05:45;3.75;;;1.50;;
1701;SDS011;848;48.354;10.064;2023-08-31T13:08:14;5.70;;;1.95;;
1701;SDS011;848;48.354;10.064;2023-08-31T13:10:40;3.28;;;2.97;;
1701;SDS011;848;48.354;10.064;2023-08-31T13:13:08;4.93;;;2.03;;
1701;SDS011;848;48.354;10.064;2023-08-31T13:15:35;3.28;;;1.83;;
1701;SDS011;848;48.354;10.064;2023-08-31T13:18:03;4.57;;;2.25;;
1701;SDS011;848;48.354;10.064;2023-08-31T13:20:30;5.85;;;3.15;;
1701;SDS011;848;48.354;10.064;2023-08-31T13:22:57;5.82;;;3.28;;
1701;SDS011;848;48.354;10.064;2023-08-31T13:25:24;5.43;;;2.90;;
1701;SDS011;848;48.354;10.064;2023-08-31T13:27:51;3.75;;;2.53;;
1701;SDS011;848;48.354;10.064;2023-08-31T13:30:18;4.22;;;2.00;;
1701;SDS011;848;48.354;10.064;2023-08-31T13:32:45;5.35;;;2.33;;
1701;SDS011;848;48.354;10.064;2023-08-31T13:35:13;4.78;;;2.20;;
1701;SDS011;848;48.354;10.064;2023-08-31T13:37:40;2.35;;;1.60;;
1701;SDS011;848;48.354;10.064;2023-08-31T13:40:08;3.88;;;2.40;;
1701;SDS011;848;48.354;10.064;2023-08-31T13:42:35;4.88;;;1.90;;
1701;SDS011;848;48.354;10.064;2023-08-31T13:45:04;5.05;;;2.22;;
1701;SDS011;848;48.354;10.064;2023-08-31T13:47:32;3.25;;;1.85;;
1701;SDS011;848;48.354;10.064;2023-08-31T13:49:59;3.15;;;1.80;;
1701;SDS011;848;48.354;10.064;2023-08-31T13:52:27;5.70;;;2.20;;
1701;SDS011;848;48.354;10.064;2023-08-31T13:54:54;2.47;;;1.67;;
1701;SDS011;848;48.354;10.064;2023-08-31T13:57:21;3.92;;;2.13;;
1701;SDS011;848;48.354;10.064;2023-08-31T13:59:48;4.22;;;2.03;;
1701;SDS011;848;48.354;10.064;2023-08-31T14:02:15;2.83;;;1.90;;
1701;SDS011;848;48.354;10.064;2023-08-31T14:04:42;8.52;;;2.00;;
1701;SDS011;848;48.354;10.064;2023-08-31T14:07:09;4.63;;;2.15;;
1701;SDS011;848;48.354;10.064;2023-08-31T14:09:37;3.30;;;2.08;;
1701;SDS011;848;48.354;10.064;2023-08-31T14:12:04;2.75;;;1.90;;
1701;SDS011;848;48.354;10.064;2023-08-31T14:14:31;3.65;;;1.80;;
1701;SDS011;848;48.354;10.064;2023-08-31T14:16:58;6.90;;;2.00;;
1701;SDS011;848;48.354;10.064;2023-08-31T14:19:25;3.03;;;1.80;;
1701;SDS011;848;48.354;10.064;2023-08-31T14:21:52;7.00;;;2.72;;
1701;SDS011;848;48.354;10.064;2023-08-31T14:24:19;3.03;;;1.70;;
1701;SDS011;848;48.354;10.064;2023-08-31T14:26:47;3.75;;;2.10;;
1701;SDS011;848;48.354;10.064;2023-08-31T14:29:16;6.47;;;2.35;;
1701;SDS011;848;48.354;10.064;2023-08-31T14:31:43;5.28;;;1.70;;
1701;SDS011;848;48.354;10.064;2023-08-31T14:34:10;4.30;;;2.05;;
1701;SDS011;848;48.354;10.064;2023-08-31T14:36:37;4.28;;;2.20;;
1701;SDS011;848;48.354;10.064;2023-08-31T14:39:04;5.10;;;1.80;;
1701;SDS011;848;48.354;10.064;2023-08-31T14:41:31;1.95;;;1.60;;
1701;SDS011;848;48.354;10.064;2023-08-31T14:43:59;1.98;;;1.77;;
1701;SDS011;848;48.354;10.064;2023-08-31T14:46:26;4.22;;;1.73;;
1701;SDS011;848;48.354;10.064;2023-08-31T14:48:53;3.63;;;2.28;;
1701;SDS011;848;48.354;10.064;2023-08-31T14:51:20;2.83;;;1.55;;
1701;SDS011;848;48.354;10.064;2023-08-31T14:53:47;4.97;;;2.20;;
1701;SDS011;848;48.354;10.064;2023-08-31T14:56:13;3.63;;;2.00;;
1701;SDS011;848;48.354;10.064;2023-08-31T14:58:40;3.47;;;2.17;;
1701;SDS011;848;48.354;10.064;2023-08-31T15:01:09;3.15;;;1.80;;
1701;SDS011;848;48.354;10.064;2023-08-31T15:03:36;4.30;;;2.40;;
1701;SDS011;848;48.354;10.064;2023-08-31T15:06:03;3.75;;;1.80;;
1701;SDS011;848;48.354;10.064;2023-08-31T15:08:36;5.30;;;1.95;;
1701;SDS011;848;48.354;10.064;2023-08-31T15:11:06;3.08;;;2.65;;
1701;SDS011;848;48.354;10.064;2023-08-31T15:13:33;2.58;;;1.73;;
1701;SDS011;848;48.354;10.064;2023-08-31T15:16:00;5.95;;;5.43;;
1701;SDS011;848;48.354;10.064;2023-08-31T15:18:28;4.82;;;1.90;;
1701;SDS011;848;48.354;10.064;2023-08-31T15:20:55;5.90;;;2.28;;
1701;SDS011;848;48.354;10.064;2023-08-31T15:23:22;3.42;;;2.00;;
1701;SDS011;848;48.354;10.064;2023-08-31T15:25:49;7.53;;;3.13;;
1701;SDS011;848;48.354;10.064;2023-08-31T15:28:16;6.03;;;2.30;;
1701;SDS011;848;48.354;10.064;2023-08-31T15:30:43;2.50;;;1.90;;